createdAt,value
2022-07-27T00:00:54.945Z,98.50
2022-07-27T00:03:23.350Z,98.70
2022-07-27T00:05:50.735Z,98.90
2022-07-27T00:08:20.397Z,98.90
2022-07-27T00:10:47.851Z,98.80
2022-07-27T00:13:14.800Z,98.80
2022-07-27T00:15:42.202Z,98.70
2022-07-27T00:18:10.619Z,98.60
2022-07-27T00:20:37.537Z,98.70
2022-07-27T00:23:04.479Z,98.60
2022-07-27T00:25:31.385Z,98.50
2022-07-27T00:27:58.531Z,98.60
2022-07-27T00:30:26.209Z,98.60
2022-07-27T00:32:53.384Z,98.80
2022-07-27T00:35:21.592Z,98.80
2022-07-27T00:37:48.489Z,98.70
2022-07-27T00:40:15.730Z,98.70
2022-07-27T00:42:42.713Z,98.60
2022-07-27T00:45:09.961Z,98.80
2022-07-27T00:47:36.876Z,98.70
2022-07-27T00:50:04.423Z,98.60
2022-07-27T00:52:32.690Z,98.50
2022-07-27T00:54:59.778Z,98.40
2022-07-27T00:57:27.971Z,98.40
2022-07-27T00:59:54.893Z,98.60
2022-07-27T01:02:23.106Z,98.60
2022-07-27T01:04:50.305Z,98.70
2022-07-27T01:07:21.520Z,98.70
2022-07-27T01:09:58.735Z,98.80
2022-07-27T01:12:26.750Z,98.80
2022-07-27T01:14:54.370Z,98.80
2022-07-27T01:17:21.410Z,98.90
2022-07-27T01:19:48.501Z,98.70
2022-07-27T01:22:16.835Z,98.70
2022-07-27T01:24:43.912Z,98.80
2022-07-27T01:27:10.815Z,98.90
2022-07-27T01:29:37.988Z,98.90
2022-07-27T01:32:05.252Z,99.00
2022-07-27T01:34:35.134Z,99.00
2022-07-27T01:37:02.095Z,99.00
2022-07-27T01:39:30.844Z,99.10
2022-07-27T01:41:58.518Z,99.10
2022-07-27T01:44:25.463Z,99.10
2022-07-27T01:46:52.538Z,99.20
2022-07-27T01:49:19.810Z,99.20
2022-07-27T01:51:46.759Z,99.30
2022-07-27T01:54:13.934Z,99.40
2022-07-27T01:56:42.226Z,99.60
2022-07-27T01:59:16.621Z,99.60
2022-07-27T02:01:44.133Z,99.60
2022-07-27T02:04:11.317Z,99.70
2022-07-27T02:06:38.281Z,99.70
2022-07-27T02:09:05.177Z,99.80
2022-07-27T02:11:50.517Z,99.90
2022-07-27T02:14:18.731Z,99.90
2022-07-27T02:16:48.569Z,99.90
2022-07-27T02:19:18.308Z,99.80
2022-07-27T02:21:45.446Z,99.80
2022-07-27T02:24:12.457Z,99.90
2022-07-27T02:26:39.761Z,99.90
2022-07-27T02:29:06.891Z,99.90
2022-07-27T02:31:35.387Z,99.90
2022-07-27T02:34:02.521Z,99.90
2022-07-27T02:36:29.622Z,99.90
2022-07-27T02:38:57.235Z,99.90
2022-07-27T02:41:24.419Z,99.90
2022-07-27T02:43:51.736Z,99.90
2022-07-27T02:46:45.861Z,99.90
2022-07-27T02:49:13.312Z,99.90
2022-07-27T02:51:40.530Z,99.90
2022-07-27T02:54:08.220Z,99.90
2022-07-27T02:56:35.173Z,99.90
2022-07-27T02:59:02.494Z,99.90
2022-07-27T03:01:29.477Z,99.90
2022-07-27T03:03:57.865Z,99.90
2022-07-27T03:06:24.940Z,99.90
2022-07-27T03:08:51.830Z,99.90
2022-07-27T03:11:18.801Z,99.90
2022-07-27T03:13:45.781Z,99.90
2022-07-27T03:16:12.886Z,99.90
2022-07-27T03:18:39.960Z,99.90
2022-07-27T03:21:08.953Z,99.90
2022-07-27T03:25:29.167Z,99.90
2022-07-27T03:28:00.479Z,99.90
2022-07-27T03:30:30.951Z,99.90
2022-07-27T03:32:58.310Z,99.90
2022-07-27T03:35:25.521Z,99.90
2022-07-27T03:37:52.604Z,99.90
2022-07-27T03:40:19.858Z,99.90
2022-07-27T03:42:48.491Z,99.90
2022-07-27T03:45:15.579Z,99.90
2022-07-27T03:47:42.543Z,99.90
2022-07-27T03:50:09.622Z,99.90
2022-07-27T03:52:36.584Z,99.90
2022-07-27T03:55:04.346Z,99.90
2022-07-27T03:57:31.316Z,99.90
2022-07-27T03:59:59.708Z,99.90
2022-07-27T04:02:26.757Z,99.90
2022-07-27T04:04:54.267Z,99.90
2022-07-27T04:07:21.129Z,99.90
2022-07-27T04:09:48.168Z,99.90
2022-07-27T04:12:15.200Z,99.90
2022-07-27T04:14:44.344Z,99.90
2022-07-27T04:17:13.035Z,99.90
2022-07-27T04:19:59.867Z,99.90
2022-07-27T04:22:27.384Z,99.90
2022-07-27T04:24:54.355Z,99.90
2022-07-27T04:27:21.279Z,99.90
2022-07-27T04:29:48.252Z,99.90
2022-07-27T04:32:16.556Z,99.90
2022-07-27T04:34:43.615Z,99.90
2022-07-27T04:37:10.911Z,99.90
2022-07-27T04:39:37.826Z,99.90
2022-07-27T04:42:04.929Z,99.90
2022-07-27T04:44:32.027Z,99.90
2022-07-27T04:46:58.921Z,99.90
2022-07-27T04:49:27.365Z,99.90
2022-07-27T04:51:54.379Z,99.90
2022-07-27T04:54:21.348Z,99.90
2022-07-27T04:56:48.377Z,99.90
2022-07-27T04:59:15.522Z,99.90
2022-07-27T05:01:42.692Z,99.90
2022-07-27T05:04:09.835Z,99.90
2022-07-27T05:06:38.174Z,99.90
2022-07-27T05:09:05.128Z,99.90
2022-07-27T05:11:32.057Z,99.90
2022-07-27T05:13:59.199Z,99.90
2022-07-27T05:16:28.863Z,99.90
2022-07-27T05:18:56.302Z,99.30
2022-07-27T05:21:23.226Z,98.40
2022-07-27T05:23:51.546Z,98.10
2022-07-27T05:26:18.601Z,97.60
2022-07-27T05:28:45.703Z,97.40
2022-07-27T05:31:12.646Z,96.90
2022-07-27T05:33:39.608Z,97.00
2022-07-27T05:36:07.762Z,96.90
2022-07-27T05:38:39.190Z,95.00
2022-07-27T05:41:08.020Z,91.20
2022-07-27T05:43:34.972Z,83.20
2022-07-27T05:46:02.212Z,77.00
2022-07-27T05:48:29.652Z,74.90
2022-07-27T05:50:56.704Z,73.80
2022-07-27T05:53:23.869Z,74.70
2022-07-27T05:55:59.242Z,75.90
2022-07-27T05:58:29.558Z,77.00
2022-07-27T06:00:57.209Z,78.30
2022-07-27T06:03:24.608Z,78.50
2022-07-27T06:05:51.974Z,79.90
2022-07-27T06:08:19.003Z,79.90
2022-07-27T06:10:46.091Z,81.30
2022-07-27T06:13:13.864Z,82.40
2022-07-27T06:15:42.237Z,83.20
2022-07-27T06:18:17.987Z,82.80
2022-07-27T06:20:45.728Z,82.80
2022-07-27T06:23:12.843Z,82.50
2022-07-27T06:25:40.373Z,82.80
2022-07-27T06:28:07.272Z,81.90
2022-07-27T06:30:34.447Z,80.60
2022-07-27T06:33:06.582Z,79.40
2022-07-27T06:35:34.042Z,77.60
2022-07-27T06:38:01.112Z,76.20
2022-07-27T06:40:29.882Z,76.00
2022-07-27T06:42:58.221Z,73.50
2022-07-27T06:45:25.296Z,72.10
2022-07-27T06:47:52.333Z,73.40
2022-07-27T06:50:20.989Z,72.10
2022-07-27T06:52:48.384Z,72.00
2022-07-27T06:55:15.372Z,71.90
2022-07-27T06:57:43.011Z,71.00
2022-07-27T07:00:11.438Z,71.10
2022-07-27T07:02:39.669Z,69.70
2022-07-27T07:05:06.804Z,70.60
2022-07-27T07:07:35.409Z,69.70
2022-07-27T07:10:02.859Z,69.00
2022-07-27T07:12:30.113Z,68.60
2022-07-27T07:14:59.421Z,70.70
2022-07-27T07:17:27.381Z,71.80
2022-07-27T07:19:54.322Z,75.90
2022-07-27T07:22:21.282Z,74.50
2022-07-27T07:24:50.136Z,71.60
2022-07-27T07:27:19.231Z,72.90
2022-07-27T07:29:46.155Z,69.60
2022-07-27T07:32:13.039Z,68.60
2022-07-27T07:34:41.841Z,67.60
2022-07-27T07:37:08.829Z,65.40
2022-07-27T07:39:35.834Z,59.20
2022-07-27T07:42:04.185Z,55.60
2022-07-27T07:44:31.332Z,52.40
2022-07-27T07:46:58.423Z,50.50
2022-07-27T07:49:39.062Z,46.20
2022-07-27T07:52:07.849Z,44.70
2022-07-27T07:54:34.928Z,41.80
2022-07-27T07:57:01.924Z,43.00
2022-07-27T07:59:30.257Z,41.60
2022-07-27T08:01:57.288Z,40.60
2022-07-27T08:04:24.371Z,40.80
2022-07-27T08:06:51.238Z,38.50
2022-07-27T08:09:18.227Z,39.90
2022-07-27T08:11:45.163Z,38.40
2022-07-27T08:14:12.283Z,38.20
2022-07-27T08:16:41.233Z,38.90
2022-07-27T08:19:09.500Z,40.30
2022-07-27T08:21:36.623Z,41.30
2022-07-27T08:24:03.870Z,43.10
2022-07-27T08:26:30.814Z,45.00
2022-07-27T08:28:59.285Z,45.80
2022-07-27T08:31:52.594Z,46.90
2022-07-27T08:34:15.011Z,45.10
2022-07-27T08:36:42.316Z,45.60
2022-07-27T08:39:09.634Z,44.80
2022-07-27T08:41:38.697Z,47.00
2022-07-27T08:44:12.883Z,48.30
2022-07-27T08:46:42.717Z,48.20
2022-07-27T08:49:10.075Z,46.90
2022-07-27T08:51:40.824Z,50.40
2022-07-27T08:54:09.091Z,49.40
2022-07-27T08:56:36.118Z,50.40
2022-07-27T08:59:03.425Z,53.30
2022-07-27T09:01:31.677Z,53.30
2022-07-27T09:03:58.763Z,52.60
2022-07-27T09:06:54.150Z,51.50
2022-07-27T09:09:21.974Z,55.50
2022-07-27T09:12:02.788Z,56.20
2022-07-27T09:14:30.551Z,54.50
2022-07-27T09:19:05.971Z,55.00
2022-07-27T09:21:34.064Z,55.30
2022-07-27T09:24:17.867Z,52.90
2022-07-27T09:27:02.992Z,50.00
2022-07-27T09:29:33.700Z,48.80
2022-07-27T09:32:00.753Z,48.90
2022-07-27T09:34:30.803Z,49.80
2022-07-27T09:36:59.614Z,50.40
2022-07-27T09:39:29.105Z,52.00
2022-07-27T09:42:00.012Z,53.90
2022-07-27T09:44:33.218Z,54.50
2022-07-27T09:47:21.047Z,54.70
2022-07-27T09:49:49.760Z,53.60
2022-07-27T09:52:23.571Z,50.10
2022-07-27T09:54:50.867Z,49.20
2022-07-27T09:57:18.566Z,45.60
2022-07-27T09:59:45.903Z,42.40
2022-07-27T10:02:13.982Z,44.90
2022-07-27T10:04:41.476Z,47.40
2022-07-27T10:07:13.545Z,44.70
2022-07-27T10:09:41.234Z,45.40
2022-07-27T10:12:08.867Z,42.00
2022-07-27T10:14:36.214Z,43.90
2022-07-27T10:17:03.929Z,43.60
2022-07-27T10:19:34.293Z,45.60
2022-07-27T10:22:01.395Z,43.60
2022-07-27T10:24:34.029Z,44.80
2022-07-27T10:27:18.986Z,43.10
2022-07-27T10:29:47.342Z,43.00
2022-07-27T10:32:24.056Z,44.30
2022-07-27T10:34:51.338Z,44.40
2022-07-27T10:37:25.078Z,44.40
2022-07-27T10:40:15.667Z,43.40
2022-07-27T10:42:43.984Z,44.60
2022-07-27T10:45:12.969Z,43.70
2022-07-27T10:47:42.484Z,43.20
2022-07-27T10:50:32.343Z,44.10
2022-07-27T10:53:08.201Z,41.20
2022-07-27T10:55:58.044Z,44.00
2022-07-27T10:58:46.006Z,43.90
2022-07-27T11:01:14.620Z,42.00
2022-07-27T11:03:49.465Z,43.60
2022-07-27T11:06:34.680Z,42.10
2022-07-27T11:09:59.967Z,38.80
2022-07-27T11:11:58.790Z,42.20
2022-07-27T11:14:30.681Z,39.60
2022-07-27T11:19:52.427Z,40.30
2022-07-27T11:22:37.723Z,37.80
2022-07-27T11:25:13.098Z,40.80
2022-07-27T11:27:48.510Z,40.10
2022-07-27T11:30:22.579Z,37.00
2022-07-27T11:32:49.745Z,38.40
2022-07-27T11:35:20.186Z,41.30
2022-07-27T11:37:59.164Z,39.80
2022-07-27T11:43:33.671Z,38.90
2022-07-27T11:46:16.846Z,38.50
2022-07-27T11:49:08.998Z,39.00
2022-07-27T11:51:43.129Z,40.40
2022-07-27T11:54:12.061Z,43.60
2022-07-27T11:56:43.465Z,44.00
2022-07-27T11:59:15.847Z,47.00
2022-07-27T12:01:50.968Z,47.20
2022-07-27T12:04:24.649Z,44.00
2022-07-27T12:07:05.033Z,43.70
2022-07-27T12:09:38.167Z,41.00
2022-07-27T12:12:14.001Z,40.40
2022-07-27T12:14:46.019Z,41.50
2022-07-27T12:17:30.258Z,37.30
2022-07-27T12:20:00.812Z,39.60
2022-07-27T12:22:31.390Z,42.00
2022-07-27T12:24:59.909Z,40.80
2022-07-27T12:27:28.810Z,40.00
2022-07-27T12:30:07.089Z,41.00
2022-07-27T12:32:37.745Z,39.30
2022-07-27T12:35:25.274Z,39.60
2022-07-27T12:38:00.323Z,38.50
2022-07-27T12:40:28.246Z,38.10
2022-07-27T12:42:57.528Z,40.30
2022-07-27T12:45:32.320Z,41.30
2022-07-27T12:48:06.589Z,43.80
2022-07-27T12:50:33.808Z,45.70
2022-07-27T12:53:00.949Z,48.40
2022-07-27T12:55:28.179Z,48.90
2022-07-27T12:57:56.764Z,49.20
2022-07-27T13:00:33.730Z,48.50
2022-07-27T13:03:02.032Z,49.50
2022-07-27T13:05:29.582Z,48.80
2022-07-27T13:07:56.709Z,48.90
2022-07-27T13:10:23.849Z,51.40
2022-07-27T13:12:51.903Z,51.30
2022-07-27T13:15:20.068Z,51.90
2022-07-27T13:17:49.246Z,51.30
2022-07-27T13:20:17.604Z,50.80
2022-07-27T13:22:45.892Z,50.90
2022-07-27T13:25:16.146Z,51.40
2022-07-27T13:27:44.457Z,53.30
2022-07-27T13:30:13.665Z,54.50
2022-07-27T13:32:41.300Z,54.30
2022-07-27T13:35:12.430Z,55.30
2022-07-27T13:37:40.127Z,54.90
2022-07-27T13:40:09.166Z,55.60
2022-07-27T13:42:37.336Z,53.50
2022-07-27T13:45:11.198Z,52.10
2022-07-27T13:47:39.932Z,51.50
2022-07-27T13:50:15.093Z,50.80
2022-07-27T13:52:46.593Z,50.30
2022-07-27T13:55:14.606Z,52.30
2022-07-27T13:57:41.946Z,53.10
2022-07-27T14:00:10.438Z,52.40
2022-07-27T14:02:37.729Z,51.60
2022-07-27T14:05:06.098Z,51.60
2022-07-27T14:07:34.036Z,52.20
2022-07-27T14:10:21.254Z,52.60
2022-07-27T14:12:48.402Z,54.90
2022-07-27T14:15:15.513Z,54.70
2022-07-27T14:17:42.669Z,54.10
2022-07-27T14:20:11.411Z,55.50
2022-07-27T14:22:38.717Z,54.90
2022-07-27T14:25:08.054Z,54.70
2022-07-27T14:27:36.898Z,55.40
2022-07-27T14:30:07.545Z,51.60
2022-07-27T14:32:37.688Z,51.00
2022-07-27T14:35:06.293Z,51.10
2022-07-27T14:37:36.088Z,48.70
2022-07-27T14:40:06.104Z,46.60
2022-07-27T14:42:34.633Z,47.70
2022-07-27T14:45:01.832Z,45.40
2022-07-27T14:47:29.059Z,45.70
2022-07-27T14:49:56.285Z,45.50
2022-07-27T14:52:23.654Z,44.20
2022-07-27T14:54:50.830Z,45.90
2022-07-27T14:57:18.223Z,46.20
2022-07-27T14:59:46.639Z,44.40
2022-07-27T15:02:13.851Z,44.80
2022-07-27T15:04:41.122Z,45.00
2022-07-27T15:07:08.182Z,47.60
2022-07-27T15:09:35.317Z,48.90
2022-07-27T15:12:02.579Z,50.90
2022-07-27T15:14:29.991Z,50.70
2022-07-27T15:16:58.710Z,50.60
2022-07-27T15:19:26.238Z,51.30
2022-07-27T15:21:53.584Z,50.90
2022-07-27T15:24:20.688Z,51.20
2022-07-27T15:26:47.809Z,50.90
2022-07-27T15:29:15.720Z,50.90
2022-07-27T15:31:43.515Z,51.10
2022-07-27T15:34:12.023Z,51.70
2022-07-27T15:36:45.885Z,51.00
2022-07-27T15:39:15.282Z,51.70
2022-07-27T15:41:42.796Z,51.30
2022-07-27T15:44:09.929Z,50.30
2022-07-27T15:46:37.114Z,50.50
2022-07-27T15:49:04.362Z,52.60
2022-07-27T15:51:32.929Z,52.50
2022-07-27T15:54:00.100Z,53.10
2022-07-27T15:56:26.979Z,53.50
2022-07-27T15:58:54.286Z,55.30
2022-07-27T16:01:21.837Z,54.90
2022-07-27T16:03:49.218Z,55.40
2022-07-27T16:06:19.097Z,56.50
2022-07-27T16:08:48.133Z,55.80
2022-07-27T16:11:15.314Z,56.40
2022-07-27T16:13:42.505Z,56.50
2022-07-27T16:16:25.261Z,57.80
2022-07-27T16:18:53.565Z,57.30
2022-07-27T16:21:22.598Z,57.40
2022-07-27T16:23:52.978Z,56.30
2022-07-27T16:26:21.581Z,56.30
2022-07-27T16:28:50.750Z,56.20
2022-07-27T16:31:20.387Z,57.50
2022-07-27T16:33:49.291Z,58.40
2022-07-27T16:36:22.986Z,59.10
2022-07-27T16:38:52.161Z,59.50
2022-07-27T16:41:19.846Z,60.40
2022-07-27T16:43:47.251Z,60.70
2022-07-27T16:46:15.030Z,61.50
2022-07-27T16:48:43.706Z,60.50
2022-07-27T16:51:11.766Z,61.40
2022-07-27T16:53:38.885Z,61.60
2022-07-27T16:56:08.957Z,61.70
2022-07-27T16:58:36.469Z,60.30
2022-07-27T17:01:04.811Z,61.30
2022-07-27T17:03:32.219Z,60.50
2022-07-27T17:06:03.684Z,59.90
2022-07-27T17:08:33.050Z,60.70
2022-07-27T17:11:02.279Z,60.60
2022-07-27T17:13:34.298Z,61.10
2022-07-27T17:16:02.254Z,61.30
2022-07-27T17:18:29.765Z,60.20
2022-07-27T17:20:56.951Z,60.70
2022-07-27T17:23:24.127Z,61.90
2022-07-27T17:25:51.466Z,62.80
2022-07-27T17:28:19.413Z,64.50
2022-07-27T17:30:48.172Z,64.60
2022-07-27T17:33:15.582Z,64.50
2022-07-27T17:35:42.729Z,64.80
2022-07-27T17:38:13.912Z,64.70
2022-07-27T17:40:41.049Z,66.10
2022-07-27T17:43:08.065Z,66.10
2022-07-27T17:45:35.131Z,66.10
2022-07-27T17:48:04.075Z,66.70
2022-07-27T17:50:31.249Z,67.50
2022-07-27T17:52:59.214Z,66.40
2022-07-27T17:55:26.397Z,66.70
2022-07-27T17:57:53.701Z,66.90
2022-07-27T18:00:21.187Z,67.30
2022-07-27T18:02:48.362Z,67.50
2022-07-27T18:05:17.150Z,68.50
2022-07-27T18:07:44.467Z,67.70
2022-07-27T18:10:11.720Z,68.50
2022-07-27T18:12:38.761Z,69.20
2022-07-27T18:15:25.046Z,68.30
2022-07-27T18:17:52.030Z,68.10
2022-07-27T18:20:20.566Z,68.20
2022-07-27T18:22:48.018Z,68.20
2022-07-27T18:25:15.200Z,67.70
2022-07-27T18:27:42.966Z,67.90
2022-07-27T18:30:12.077Z,68.30
2022-07-27T18:32:39.450Z,69.70
2022-07-27T18:35:08.267Z,69.80
2022-07-27T18:37:37.014Z,70.40
2022-07-27T18:40:05.321Z,71.40
2022-07-27T18:42:32.455Z,71.50
2022-07-27T18:44:59.569Z,71.10
2022-07-27T18:47:26.985Z,70.30
2022-07-27T18:49:54.274Z,70.90
2022-07-27T18:52:21.364Z,70.00
2022-07-27T18:54:49.868Z,70.00
2022-07-27T18:57:17.685Z,69.80
2022-07-27T18:59:47.311Z,70.70
2022-07-27T19:02:14.890Z,71.50
2022-07-27T19:04:42.578Z,70.70
2022-07-27T19:07:10.169Z,70.90
2022-07-27T19:09:37.417Z,70.50
2022-07-27T19:12:09.672Z,70.90
2022-07-27T19:14:37.556Z,70.90
2022-07-27T19:17:04.908Z,71.40
2022-07-27T19:19:32.351Z,72.50
2022-07-27T19:22:00.262Z,72.50
2022-07-27T19:24:27.417Z,72.30
2022-07-27T19:26:54.624Z,72.20
2022-07-27T19:29:23.215Z,72.40
2022-07-27T19:31:50.662Z,72.30
2022-07-27T19:34:17.966Z,72.90
2022-07-27T19:36:45.203Z,73.10
2022-07-27T19:39:13.102Z,73.40
2022-07-27T19:41:40.841Z,74.00
2022-07-27T19:44:09.139Z,75.00
2022-07-27T19:46:38.107Z,75.30
2022-07-27T19:49:05.337Z,75.80
2022-07-27T19:51:32.665Z,76.60
2022-07-27T19:53:59.823Z,77.00
2022-07-27T19:56:26.950Z,77.10
2022-07-27T19:58:54.080Z,76.70
2022-07-27T20:01:21.141Z,77.00
2022-07-27T20:03:54.323Z,77.20
2022-07-27T20:06:22.945Z,78.00
2022-07-27T20:08:50.058Z,78.90
2022-07-27T20:11:17.321Z,79.80
2022-07-27T20:13:44.563Z,80.20
2022-07-27T20:16:11.640Z,80.30
2022-07-27T20:18:38.848Z,80.00
2022-07-27T20:21:22.632Z,79.80
2022-07-27T20:23:50.738Z,80.30
2022-07-27T20:26:17.887Z,80.30
2022-07-27T20:28:45.473Z,81.30
2022-07-27T20:31:12.806Z,81.90
2022-07-27T20:33:39.974Z,82.00
2022-07-27T20:36:08.809Z,83.10
2022-07-27T20:38:35.859Z,85.20
2022-07-27T20:41:03.059Z,86.40
2022-07-27T20:43:31.052Z,86.80
2022-07-27T20:45:58.682Z,87.60
2022-07-27T20:48:25.819Z,89.40
2022-07-27T20:50:53.444Z,89.80
2022-07-27T20:53:22.144Z,89.00
2022-07-27T20:55:49.244Z,89.30
2022-07-27T20:58:16.377Z,88.60
2022-07-27T21:00:43.736Z,88.60
2022-07-27T21:03:10.795Z,88.50
2022-07-27T21:05:37.722Z,88.80
2022-07-27T21:08:04.931Z,89.00
2022-07-27T21:10:33.923Z,89.00
2022-07-27T21:13:01.001Z,88.20
2022-07-27T21:15:34.168Z,87.80
2022-07-27T21:18:01.701Z,87.40
2022-07-27T21:20:28.959Z,87.80
2022-07-27T21:23:14.650Z,88.90
2022-07-27T21:25:43.346Z,89.30
2022-07-27T21:28:15.804Z,89.70
2022-07-27T21:30:45.766Z,89.40
2022-07-27T21:33:13.139Z,89.10
2022-07-27T21:35:40.368Z,90.00
2022-07-27T21:38:07.517Z,90.20
2022-07-27T21:40:34.532Z,90.20
2022-07-27T21:43:03.001Z,90.50
2022-07-27T21:45:30.297Z,90.70
2022-07-27T21:47:57.469Z,90.60
2022-07-27T21:50:24.607Z,91.10
2022-07-27T21:52:52.988Z,92.00
2022-07-27T21:55:23.262Z,93.10
2022-07-27T21:57:50.521Z,93.10
2022-07-27T22:00:23.889Z,92.80
2022-07-27T22:02:51.388Z,92.70
2022-07-27T22:05:18.732Z,92.70
2022-07-27T22:07:45.864Z,92.60
2022-07-27T22:10:13.068Z,93.60
2022-07-27T22:12:40.324Z,93.50
2022-07-27T22:15:07.885Z,93.90
2022-07-27T22:17:36.284Z,94.40
2022-07-27T22:20:17.624Z,94.30
2022-07-27T22:22:44.874Z,94.30
2022-07-27T22:25:12.177Z,94.50
2022-07-27T22:27:39.391Z,94.10
2022-07-27T22:30:08.044Z,94.00
2022-07-27T22:32:36.673Z,93.60
2022-07-27T22:35:04.348Z,93.40
2022-07-27T22:37:31.461Z,93.30
2022-07-27T22:39:59.157Z,93.30
2022-07-27T22:42:26.359Z,93.30
2022-07-27T22:44:53.548Z,93.20
2022-07-27T22:47:21.139Z,93.60
2022-07-27T22:49:49.888Z,93.60
2022-07-27T22:52:17.060Z,93.40
2022-07-27T22:54:44.342Z,93.30
2022-07-27T22:57:11.450Z,92.90
2022-07-27T22:59:38.777Z,92.60
2022-07-27T23:02:06.354Z,93.00
2022-07-27T23:04:33.622Z,93.50
2022-07-27T23:07:02.148Z,94.00
2022-07-27T23:09:29.193Z,94.30
2022-07-27T23:11:56.365Z,94.80
2022-07-27T23:14:25.871Z,94.70
2022-07-27T23:16:53.131Z,95.00
2022-07-27T23:19:21.077Z,94.90
2022-07-27T23:21:49.206Z,94.40
2022-07-27T23:24:28.684Z,94.10
2022-07-27T23:26:56.674Z,94.30
2022-07-27T23:29:23.867Z,94.20
2022-07-27T23:31:51.058Z,94.20
2022-07-27T23:34:18.237Z,94.60
2022-07-27T23:36:45.565Z,94.10
2022-07-27T23:39:12.648Z,94.00
2022-07-27T23:41:41.096Z,93.90
2022-07-27T23:44:11.339Z,93.90
2022-07-27T23:46:38.527Z,94.30
2022-07-27T23:49:05.591Z,94.60
2022-07-27T23:51:32.583Z,94.60
2022-07-27T23:53:59.658Z,94.50
2022-07-27T23:56:26.721Z,94.40
2022-07-27T23:58:55.409Z,94.40
